Time;durP1;ratioP1;P1;durP2;ratioP2;P2;SDS_P1;SDS_P2;PMS_P1;PMS_P2;Temp;Humidity;BMP_temperature;BMP_pressure;BME280_temperature;BME280_humidity;BME280_pressure;Samples;Min_cycle;Max_cycle;Signal;HPM_P1;HPM_P2
2022/09/25 00:00:23;;;;;;;2.05;1.05;;;;;;;10.19;100.00;97527.75;4987506;28;20177;-52
2022/09/25 00:02:49;;;;;;;2.42;1.08;;;;;;;10.22;100.00;97531.06;4977917;28;20042;-51
2022/09/25 00:05:15;;;;;;;1.50;1.00;;;;;;;10.02;100.00;97527.19;4979646;28;20096;-57
2022/09/25 00:07:40;;;;;;;1.73;1.05;;;;;;;9.90;100.00;97535.78;4979769;28;20040;-56
2022/09/25 00:10:07;;;;;;;1.63;1.05;;;;;;;10.03;100.00;97528.84;4964047;28;20133;-52
2022/09/25 00:12:33;;;;;;;4.97;1.20;;;;;;;9.69;100.00;97475.75;4985597;28;20094;-52
2022/09/25 00:14:58;;;;;;;1.75;1.10;;;;;;;10.12;100.00;97539.44;4960649;28;20050;-53
2022/09/25 00:17:24;;;;;;;1.63;0.75;;;;;;;10.12;100.00;97534.25;4951121;28;20045;-53
2022/09/25 00:19:50;;;;;;;2.25;0.90;;;;;;;10.02;100.00;97535.81;4978237;28;20046;-54
2022/09/25 00:22:22;;;;;;;1.00;0.85;;;;;;;9.77;100.00;97508.06;4986845;28;20107;-55
2022/09/25 00:24:49;;;;;;;1.73;0.90;;;;;;;9.81;100.00;97518.22;4978484;28;20042;-54
2022/09/25 00:27:15;;;;;;;1.10;0.80;;;;;;;9.92;100.00;97541.69;4976450;28;20184;-53
2022/09/25 00:29:41;;;;;;;1.25;0.80;;;;;;;9.89;100.00;97549.69;4942804;28;20129;-56
2022/09/25 00:32:09;;;;;;;1.45;1.00;;;;;;;9.89;100.00;97541.91;4984512;28;20038;-56
2022/09/25 00:34:36;;;;;;;1.83;0.88;;;;;;;10.00;100.00;97545.44;4975789;28;20105;-53
2022/09/25 00:37:02;;;;;;;1.23;0.85;;;;;;;10.12;100.00;97543.81;4966989;28;20041;-54
2022/09/25 00:39:29;;;;;;;4.30;1.27;;;;;;;9.93;100.00;97514.81;4969079;28;20089;-57
2022/09/25 00:41:56;;;;;;;2.05;1.02;;;;;;;10.09;100.00;97544.84;4977973;28;20042;-54
2022/09/25 00:44:46;;;;;;;2.55;0.77;;;;;;;10.22;100.00;97542.28;4975673;28;20070;-50
2022/09/25 00:47:15;;;;;;;2.65;0.70;;;;;;;10.04;100.00;97527.91;4962329;28;20047;-53
2022/09/25 00:49:40;;;;;;;2.13;0.87;;;;;;;10.06;100.00;97549.41;4965067;28;20526;-55
2022/09/25 00:52:11;;;;;;;2.10;0.80;;;;;;;9.91;100.00;97548.66;4966788;28;20038;-53
2022/09/25 00:54:51;;;;;;;1.15;0.80;;;;;;;9.92;100.00;97550.31;4979238;28;20085;-53
2022/09/25 00:57:20;;;;;;;2.83;0.80;;;;;;;9.89;100.00;97550.50;4974006;28;20086;-55
2022/09/25 00:59:53;;;;;;;0.90;0.73;;;;;;;9.98;100.00;97554.28;4973169;28;20034;-54
2022/09/25 01:02:28;;;;;;;1.45;0.80;;;;;;;10.19;100.00;97558.09;4947673;28;20574;-52
2022/09/25 01:04:59;;;;;;;1.65;0.80;;;;;;;10.12;100.00;97525.63;4967297;28;20533;-51
2022/09/25 01:07:25;;;;;;;1.67;0.80;;;;;;;10.35;100.00;97556.13;4968351;28;20045;-49
2022/09/25 01:09:51;;;;;;;0.88;0.68;;;;;;;10.39;100.00;97559.34;4959586;28;20038;-48
2022/09/25 01:12:17;;;;;;;2.00;0.60;;;;;;;10.37;100.00;97562.03;4975469;28;20049;-50
2022/09/25 01:14:43;;;;;;;1.70;0.70;;;;;;;10.37;100.00;97563.78;4966380;28;20042;-53
2022/09/25 01:17:21;;;;;;;1.65;0.70;;;;;;;10.34;100.00;97567.44;4936576;28;20035;-54
2022/09/25 01:20:31;;;;;;;4.00;0.80;;;;;;;10.33;100.00;97575.34;4985357;28;20128;-53
2022/09/25 01:23:09;;;;;;;;;;;;;;;10.29;100.00;97573.88;4968522;28;20045;-53
2022/09/25 01:26:12;;;;;;;2.33;0.80;;;;;;;10.23;100.00;97569.94;4984192;28;19917;-57
2022/09/25 01:29:06;;;;;;;5.18;0.75;;;;;;;10.19;100.00;97573.66;4979204;28;20063;-54
2022/09/25 01:31:39;;;;;;;3.75;0.80;;;;;;;10.17;100.00;97578.94;4949714;28;20061;-54
2022/09/25 01:34:18;;;;;;;0.77;0.50;;;;;;;10.15;100.00;97582.56;4968089;28;20303;-55
2022/09/25 01:36:48;;;;;;;1.38;0.57;;;;;;;10.13;100.00;97584.41;4959578;28;20045;-52
2022/09/25 01:39:21;;;;;;;1.38;0.50;;;;;;;10.10;100.00;97585.44;4987922;28;20046;-55
2022/09/25 01:41:54;;;;;;;0.85;0.45;;;;;;;10.10;100.00;97590.63;4978576;28;20038;-57
2022/09/25 01:44:35;;;;;;;2.72;0.85;;;;;;;10.10;100.00;97593.22;4981442;28;20102;-55
2022/09/25 01:47:06;;;;;;;8.07;4.93;;;;;;;10.10;100.00;97595.03;4984012;28;20042;-53
2022/09/25 01:49:35;;;;;;;18.85;9.48;;;;;;;10.08;100.00;97595.09;4969453;28;20049;-55
2022/09/25 01:52:04;;;;;;;11.02;8.73;;;;;;;10.06;100.00;97599.56;4983159;28;20514;-53
2022/09/25 01:54:33;;;;;;;12.23;6.00;;;;;;;10.02;100.00;97605.88;4977808;28;20066;-55
2022/09/25 01:57:04;;;;;;;;;;;;;;;9.99;100.00;97603.50;4971666;28;20053;-55
2022/09/25 01:59:39;;;;;;;3.72;2.83;;;;;;;9.95;100.00;97608.97;4965880;28;19968;-54
2022/09/25 02:02:07;;;;;;;9.40;7.03;;;;;;;9.95;100.00;97616.75;4984067;28;20046;-54
2022/09/25 02:04:38;;;;;;;17.67;13.07;;;;;;;9.95;100.00;97619.34;4965248;28;20125;-56
2022/09/25 02:07:09;;;;;;;14.23;10.68;;;;;;;9.95;100.00;97616.75;4956477;28;20036;-55
2022/09/25 02:09:48;;;;;;;9.45;7.45;;;;;;;9.92;100.00;97616.97;4965545;28;20046;-54
2022/09/25 02:12:16;;;;;;;7.88;6.18;;;;;;;9.88;100.00;97625.88;4985838;28;20092;-54
2022/09/25 02:14:48;;;;;;;7.35;5.72;;;;;;;9.88;100.00;97625.88;4965716;28;20506;-52
2022/09/25 02:20:30;;;;;;;11.23;8.90;;;;;;;9.89;100.00;97628.38;4961093;28;20046;-56
2022/09/25 02:22:51;;;;;;;14.02;8.30;;;;;;;9.90;100.00;97624.84;4978156;28;20133;-52
2022/09/25 02:25:38;;;;;;;14.10;7.85;;;;;;;9.94;100.00;97628.94;4949915;28;20705;-56
2022/09/25 02:28:04;;;;;;;13.73;9.10;;;;;;;9.93;100.00;97629.03;4964919;28;20104;-55
2022/09/25 02:30:30;;;;;;;14.35;11.38;;;;;;;9.95;100.00;97635.75;4960721;28;20046;-52
2022/09/25 02:32:56;;;;;;;11.93;10.38;;;;;;;9.76;100.00;97598.97;4967672;28;20042;-54
2022/09/25 02:35:24;;;;;;;12.73;9.93;;;;;;;9.97;100.00;97627.88;4972452;28;20047;-53
2022/09/25 02:37:51;;;;;;;8.57;5.20;;;;;;;9.96;100.00;97634.84;4977724;28;20547;-53
2022/09/25 02:40:18;;;;;;;7.15;3.67;;;;;;;9.84;100.00;97612.25;4950501;28;20050;-52
2022/09/25 02:43:08;;;;;;;4.55;2.30;;;;;;;9.98;100.00;97626.97;4975224;28;20077;-51
2022/09/25 02:45:48;;;;;;;2.08;1.50;;;;;;;9.95;100.00;97638.34;4967815;28;20209;-56
2022/09/25 02:48:13;;;;;;;;;;;;;;;9.93;100.00;97640.25;4973953;28;20042;-51
2022/09/25 02:51:04;;;;;;;4.63;3.58;;;;;;;9.91;99.93;97643.84;4971459;28;20317;-53
2022/09/25 02:53:54;;;;;;;11.02;8.63;;;;;;;9.90;100.00;97640.41;4963423;28;20066;-54
2022/09/25 02:56:27;;;;;;;10.13;8.40;;;;;;;9.92;99.86;97645.50;4967364;28;20034;-53
2022/09/25 02:58:57;;;;;;;6.97;5.95;;;;;;;9.91;99.48;97639.50;4956409;28;20117;-53
2022/09/25 03:01:23;;;;;;;;;;;;;;;9.94;99.72;97649.69;4972514;28;20128;-49
2022/09/25 03:03:52;;;;;;;8.10;7.25;;;;;;;9.93;98.71;97644.59;4971297;28;19926;-54
2022/09/25 03:06:18;;;;;;;12.02;10.48;;;;;;;9.93;99.22;97648.03;4982333;28;20046;-54
2022/09/25 03:08:48;;;;;;;12.98;11.00;;;;;;;9.97;98.52;97653.84;4971131;28;20070;-53
2022/09/25 03:11:16;;;;;;;10.98;9.25;;;;;;;9.99;98.59;97652.00;4958896;28;20038;-52
2022/09/25 03:13:43;;;;;;;14.80;10.75;;;;;;;10.00;98.00;97662.25;4967685;28;20074;-50
2022/09/25 03:16:20;;;;;;;16.25;12.48;;;;;;;10.04;98.06;97668.09;4981742;28;20058;-50
2022/09/25 03:18:46;;;;;;;11.27;9.52;;;;;;;10.04;97.58;97663.75;4984052;28;20421;-54
2022/09/25 03:21:12;;;;;;;11.27;7.65;;;;;;;10.06;96.83;97663.63;4974811;28;20034;-56
2022/09/25 03:23:39;;;;;;;4.88;4.13;;;;;;;10.03;97.59;97664.66;4978540;28;20129;-52
2022/09/25 03:26:05;;;;;;;7.65;2.80;;;;;;;10.06;97.25;97666.22;4966454;28;20042;-52
2022/09/25 03:28:31;;;;;;;3.22;2.60;;;;;;;10.06;97.16;97668.81;4978676;28;20073;-55
2022/09/25 03:31:02;;;;;;;3.55;3.13;;;;;;;10.08;96.56;97675.59;4981785;28;20035;-52
2022/09/25 03:33:32;;;;;;;3.83;3.20;;;;;;;10.09;96.16;97676.44;4954069;28;20754;-55
2022/09/25 03:36:18;;;;;;;2.63;2.40;;;;;;;9.99;95.95;97671.00;4953219;28;20702;-51
2022/09/25 03:38:46;;;;;;;1.73;1.10;;;;;;;10.06;96.34;97684.38;4957229;28;20085;-54
2022/09/25 03:41:14;;;;;;;1.95;1.02;;;;;;;10.05;96.36;97685.31;4981066;28;20049;-54
2022/09/25 03:43:42;;;;;;;2.75;1.60;;;;;;;10.06;96.09;97681.78;4991084;28;20461;-54
2022/09/25 03:46:11;;;;;;;2.30;1.05;;;;;;;10.06;96.04;97687.00;4976955;28;20050;-51
2022/09/25 03:48:38;;;;;;;1.20;0.85;;;;;;;10.04;96.00;97692.31;4987544;28;20137;-51
2022/09/25 03:51:05;;;;;;;0.93;0.82;;;;;;;10.04;95.96;97684.50;4989981;28;20414;-53
2022/09/25 03:53:32;;;;;;;1.23;0.70;;;;;;;9.99;96.69;97696.94;4990954;28;20042;-54
2022/09/25 03:55:59;;;;;;;1.67;0.70;;;;;;;9.92;97.38;97681.84;4946164;28;20046;-53
2022/09/25 03:58:25;;;;;;;1.25;0.50;;;;;;;9.97;97.36;97695.38;4953209;28;20101;-56
2022/09/25 04:00:54;;;;;;;1.60;1.25;;;;;;;9.94;97.19;97686.03;4976092;28;20038;-53
2022/09/25 04:03:21;;;;;;;6.13;3.90;;;;;;;9.81;97.38;97669.56;4969347;28;20042;-55
2022/09/25 04:05:47;;;;;;;10.60;6.47;;;;;;;9.91;97.31;97699.19;4978376;28;20053;-50
2022/09/25 04:08:12;;;;;;;9.05;6.80;;;;;;;9.91;97.46;97696.59;4981708;28;20671;-56
2022/09/25 04:10:39;;;;;;;5.10;3.58;;;;;;;9.92;98.31;97700.03;4951513;28;20158;-53
2022/09/25 04:13:05;;;;;;;4.80;3.20;;;;;;;9.93;98.28;97707.72;4982420;28;20434;-55
2022/09/25 04:15:32;;;;;;;4.20;2.20;;;;;;;9.93;98.38;97704.28;4968155;28;20049;-52
2022/09/25 04:17:58;;;;;;;3.45;1.65;;;;;;;9.88;98.79;97714.97;4970738;28;20070;-56
2022/09/25 04:20:24;;;;;;;3.15;1.20;;;;;;;9.86;98.17;97711.63;4962812;28;20426;-53
2022/09/25 04:22:50;;;;;;;2.28;1.10;;;;;;;9.74;98.32;97720.16;4967313;28;20050;-54
2022/09/25 04:25:16;;;;;;;2.95;1.30;;;;;;;9.70;98.06;97722.13;4979714;28;20053;-50
2022/09/25 04:27:44;;;;;;;6.88;2.00;;;;;;;9.55;98.26;97727.44;4986809;28;20038;-53
2022/09/25 04:30:10;;;;;;;4.13;1.70;;;;;;;9.51;98.19;97715.56;4958896;28;20043;-54
2022/09/25 04:35:21;;;;;;;4.93;2.28;;;;;;;9.60;98.50;97735.75;4983338;28;20073;-51
2022/09/25 04:37:46;;;;;;;3.08;1.67;;;;;;;9.67;99.20;97739.66;4979808;28;20408;-52
2022/09/25 04:40:12;;;;;;;2.08;1.10;;;;;;;9.74;99.03;97748.69;4975201;28;20050;-54
2022/09/25 04:42:38;;;;;;;6.07;2.08;;;;;;;9.77;99.71;97756.31;4985082;28;20072;-56
2022/09/25 04:45:05;;;;;;;3.45;1.30;;;;;;;9.78;98.71;97756.22;4969829;28;20058;-54
2022/09/25 04:47:31;;;;;;;2.20;0.80;;;;;;;9.76;98.68;97755.47;4969873;28;20042;-55
2022/09/25 04:49:56;;;;;;;1.58;1.05;;;;;;;9.73;98.38;97755.66;4964957;28;20506;-49
2022/09/25 04:52:22;;;;;;;1.15;0.80;;;;;;;9.70;98.71;97763.63;4989744;28;20545;-55
2022/09/25 04:54:48;;;;;;;1.05;0.70;;;;;;;9.70;98.93;97768.81;4958194;28;20081;-52
2022/09/25 04:57:18;;;;;;;1.83;1.00;;;;;;;9.65;98.69;97765.69;4963737;28;20046;-51
2022/09/25 04:59:44;;;;;;;3.67;1.55;;;;;;;9.66;97.95;97771.72;4952889;28;20050;-54
2022/09/25 05:02:11;;;;;;;3.65;0.88;;;;;;;9.57;97.78;97769.69;4969919;28;20046;-55
2022/09/25 05:04:37;;;;;;;2.40;1.00;;;;;;;9.58;97.77;97771.31;4970668;28;20050;-57
2022/09/25 05:07:03;;;;;;;2.05;1.00;;;;;;;9.23;98.11;97714.66;4973336;28;20051;-58
2022/09/25 05:09:30;;;;;;;1.75;0.93;;;;;;;9.59;98.43;97776.44;4984154;28;20069;-58
2022/09/25 05:11:56;;;;;;;2.28;0.95;;;;;;;9.67;97.90;97778.56;4983183;28;20085;-57
2022/09/25 05:14:22;;;;;;;1.48;0.90;;;;;;;9.70;98.38;97786.16;4955883;28;20583;-57
2022/09/25 05:16:47;;;;;;;1.85;0.70;;;;;;;9.68;97.97;97801.00;4955518;28;20038;-57
2022/09/25 05:19:14;;;;;;;1.55;0.95;;;;;;;9.66;98.32;97789.88;4979924;28;20600;-58
2022/09/25 05:21:41;;;;;;;1.80;0.60;;;;;;;9.47;97.50;97777.19;4984011;28;20065;-56
2022/09/25 05:24:07;;;;;;;1.20;1.00;;;;;;;9.53;97.28;97794.94;4979070;28;20046;-60
2022/09/25 05:26:36;;;;;;;3.10;1.00;;;;;;;9.46;97.23;97803.22;4980955;28;20042;-57
2022/09/25 05:29:04;;;;;;;1.33;0.93;;;;;;;9.48;97.60;97799.59;4938952;28;20130;-56
2022/09/25 05:31:31;;;;;;;0.60;0.60;;;;;;;9.51;97.62;97803.75;4943090;28;20054;-62
2022/09/25 05:33:57;;;;;;;1.60;0.70;;;;;;;9.52;97.22;97802.84;4950209;28;20054;-56
2022/09/25 05:36:23;;;;;;;2.10;0.70;;;;;;;9.54;97.42;97814.78;4979827;28;20070;-57
2022/09/25 05:38:49;;;;;;;1.33;0.82;;;;;;;9.54;97.11;97809.59;4974461;28;20034;-59
2022/09/25 05:41:15;;;;;;;1.85;0.73;;;;;;;9.50;97.12;97808.13;4971888;28;20085;-57
2022/09/25 05:43:46;;;;;;;2.42;1.15;;;;;;;9.31;97.76;97794.59;4978028;28;20042;-59
2022/09/25 05:46:12;;;;;;;3.72;0.80;;;;;;;9.38;98.34;97820.97;4980978;28;20104;-59
2022/09/25 05:48:38;;;;;;;1.27;0.80;;;;;;;9.33;98.27;97816.88;4967269;28;20133;-57
2022/09/25 05:51:05;;;;;;;2.47;0.90;;;;;;;9.14;98.30;97815.47;4947880;28;20449;-56
2022/09/25 05:53:31;;;;;;;3.00;1.65;;;;;;;9.23;98.52;97825.31;4985714;28;20505;-57
2022/09/25 05:55:59;;;;;;;2.55;0.80;;;;;;;9.27;98.22;97830.22;4984140;28;20042;-59
2022/09/25 05:58:26;;;;;;;1.70;1.02;;;;;;;9.30;98.50;97830.06;4974062;28;20041;-59
2022/09/25 06:00:53;;;;;;;2.13;1.05;;;;;;;9.16;98.92;97806.66;4974481;28;20225;-56
2022/09/25 06:03:20;;;;;;;0.70;0.60;;;;;;;9.32;98.68;97835.97;4952190;28;20042;-59
2022/09/25 06:05:46;;;;;;;1.75;0.88;;;;;;;9.31;98.37;97838.66;4961977;28;20043;-57
2022/09/25 06:08:13;;;;;;;1.40;0.75;;;;;;;9.38;98.35;97841.72;4976411;28;20118;-57
2022/09/25 06:10:39;;;;;;;2.22;0.90;;;;;;;9.39;98.03;97833.00;4969485;28;20042;-59
2022/09/25 06:13:05;;;;;;;1.38;0.93;;;;;;;9.44;97.79;97837.00;4955143;28;20080;-58
2022/09/25 06:15:36;;;;;;;3.20;0.80;;;;;;;9.50;97.66;97843.59;4968927;28;20426;-59
2022/09/25 06:18:04;;;;;;;1.15;0.82;;;;;;;9.54;97.05;97848.50;4951499;28;20042;-57
2022/09/25 06:20:29;;;;;;;1.10;0.70;;;;;;;9.56;97.25;97848.41;4972964;28;20039;-56
2022/09/25 06:22:56;;;;;;;1.40;1.00;;;;;;;9.41;96.92;97816.44;4976994;28;20042;-59
2022/09/25 06:25:24;;;;;;;1.55;1.15;;;;;;;9.61;96.46;97852.41;4959599;28;20049;-58
2022/09/25 06:27:59;;;;;;;4.03;1.85;;;;;;;9.66;96.69;97855.56;4975507;28;20466;-58
2022/09/25 06:30:29;;;;;;;2.10;1.88;;;;;;;9.68;96.08;97852.88;4970440;28;20081;-58
2022/09/25 06:32:56;;;;;;;1.83;1.40;;;;;;;9.62;95.91;97855.84;4976641;28;20533;-58
2022/09/25 06:35:22;;;;;;;2.92;1.63;;;;;;;9.53;95.86;97839.03;4976892;28;20042;-60
2022/09/25 06:37:48;;;;;;;2.05;1.38;;;;;;;9.71;94.74;97863.91;4959339;28;20129;-57
2022/09/25 06:40:14;;;;;;;2.38;1.15;;;;;;;9.67;94.84;97866.78;4987558;28;20093;-54
2022/09/25 06:42:40;;;;;;;5.13;1.70;;;;;;;9.39;94.73;97828.66;4959059;28;20157;-55
2022/09/25 06:45:09;;;;;;;2.35;1.20;;;;;;;9.72;94.75;97872.53;4958666;28;20051;-53
2022/09/25 06:47:35;;;;;;;1.95;1.25;;;;;;;9.74;93.72;97874.09;4959344;28;20038;-53
2022/09/25 06:50:01;;;;;;;4.60;1.40;;;;;;;9.77;94.16;97873.09;4990045;28;20046;-57
2022/09/25 06:52:27;;;;;;;3.38;1.65;;;;;;;9.77;93.90;97884.31;4989371;28;20045;-57
2022/09/25 06:54:52;;;;;;;2.85;1.48;;;;;;;9.80;93.86;97878.06;4976366;28;20044;-57
2022/09/25 06:57:18;;;;;;;1.30;1.00;;;;;;;9.62;93.22;97850.66;4972362;28;20513;-56
2022/09/25 06:59:44;;;;;;;2.25;1.20;;;;;;;9.85;92.85;97883.00;4976338;28;20046;-58
2022/09/25 07:04:54;;;;;;;1.55;1.30;;;;;;;9.91;92.75;97895.59;4979291;28;20086;-58
2022/09/25 07:07:20;;;;;;;3.03;1.20;;;;;;;9.80;92.20;97875.47;4979222;28;20082;-57
2022/09/25 07:09:49;;;;;;;4.00;1.40;;;;;;;9.95;91.63;97903.09;4976567;28;20206;-55
2022/09/25 07:12:17;;;;;;;2.65;1.67;;;;;;;9.98;92.00;97904.69;4960601;28;20506;-52
2022/09/25 07:14:45;;;;;;;2.88;1.50;;;;;;;9.99;91.30;97902.03;4953609;28;20047;-54
2022/09/25 07:17:12;;;;;;;1.85;1.55;;;;;;;10.03;91.32;97913.03;4974276;28;20093;-55
2022/09/25 07:19:38;;;;;;;3.25;1.60;;;;;;;9.85;91.15;97881.22;4973774;28;20042;-58
2022/09/25 07:22:04;;;;;;;2.70;1.73;;;;;;;10.00;90.61;97906.25;4976105;28;20632;-59
2022/09/25 07:24:31;;;;;;;2.70;1.70;;;;;;;9.95;90.24;97904.88;4973754;28;20042;-56
2022/09/25 07:26:57;;;;;;;2.53;2.03;;;;;;;10.00;90.57;97916.66;4972772;28;20057;-55
2022/09/25 07:29:23;;;;;;;3.10;2.13;;;;;;;9.87;89.59;97896.72;4960728;28;20519;-53
2022/09/25 07:31:49;;;;;;;2.20;1.83;;;;;;;9.90;89.69;97901.72;4948854;28;20121;-56
2022/09/25 07:34:15;;;;;;;3.67;2.22;;;;;;;10.02;89.33;97922.59;4970447;28;20073;-53
2022/09/25 07:36:41;;;;;;;3.38;2.10;;;;;;;10.07;88.59;97927.50;4971013;28;20498;-56
2022/09/25 07:39:07;;;;;;;3.08;2.33;;;;;;;10.17;87.72;97941.63;4960229;28;20047;-56
2022/09/25 07:41:33;;;;;;;11.93;3.15;;;;;;;10.23;87.76;97948.22;4970382;28;20042;-55
2022/09/25 07:43:59;;;;;;;4.15;2.40;;;;;;;10.32;87.00;97951.09;4971724;28;20161;-56
2022/09/25 07:46:26;;;;;;;6.63;2.10;;;;;;;10.38;86.05;97950.72;4970979;28;20062;-55
2022/09/25 07:48:52;;;;;;;5.97;2.30;;;;;;;10.45;84.69;97957.22;4970969;28;20043;-55
2022/09/25 07:51:18;;;;;;;3.47;2.13;;;;;;;10.53;85.22;97960.16;4972732;28;20054;-58
2022/09/25 07:53:44;;;;;;;4.10;2.50;;;;;;;10.59;83.79;97958.94;4940499;28;20534;-56
2022/09/25 07:56:13;;;;;;;6.78;2.55;;;;;;;10.62;84.21;97964.78;4970618;28;20117;-58
2022/09/25 07:58:39;;;;;;;5.32;2.30;;;;;;;10.66;83.84;97964.59;4953302;28;20057;-59
2022/09/25 08:01:07;;;;;;;5.75;3.00;;;;;;;10.59;83.42;97972.78;4969440;28;20139;-55
2022/09/25 08:03:33;;;;;;;3.20;2.40;;;;;;;10.52;83.11;97963.69;4966480;28;20047;-51
2022/09/25 08:06:00;;;;;;;3.15;2.80;;;;;;;10.52;82.44;97981.88;4966724;28;20058;-51
2022/09/25 08:08:45;;;;;;;4.57;3.20;;;;;;;10.49;82.97;97989.03;4965113;28;20133;-55
2022/09/25 08:11:13;;;;;;;4.35;2.72;;;;;;;10.46;82.29;97984.03;4965683;28;20042;-54
2022/09/25 08:13:40;;;;;;;4.53;2.50;;;;;;;10.37;82.40;97979.38;4968825;28;20046;-59
2022/09/25 08:16:10;;;;;;;7.18;3.90;;;;;;;10.09;82.57;97936.03;4971014;28;20554;-61
2022/09/25 08:18:40;;;;;;;4.32;2.50;;;;;;;10.37;82.03;97995.78;4969071;28;20046;-60
2022/09/25 08:21:06;;;;;;;;;;;;;;;10.35;82.05;97996.84;4975368;28;20046;-61
2022/09/25 08:23:35;;;;;;;5.13;2.00;;;;;;;10.24;81.93;97999.22;4961195;28;19965;-61
2022/09/25 08:26:01;;;;;;;2.83;1.90;;;;;;;10.19;81.76;98000.34;4960900;28;20045;-59
2022/09/25 08:28:27;;;;;;;4.03;1.98;;;;;;;10.19;82.08;98008.13;4973627;28;20042;-61
2022/09/25 08:30:53;;;;;;;3.10;1.85;;;;;;;10.19;81.86;98020.28;4961271;28;20506;-59
2022/09/25 08:33:19;;;;;;;4.43;2.15;;;;;;;10.21;81.87;98013.22;4971095;28;20046;-61
2022/09/25 08:36:03;;;;;;;2.65;1.75;;;;;;;10.28;81.99;98018.88;4969986;28;20510;-62
2022/09/25 08:38:32;;;;;;;4.47;2.00;;;;;;;10.37;81.33;98026.13;4962030;28;20042;-60
2022/09/25 08:41:19;;;;;;;5.68;2.28;;;;;;;10.40;81.37;98029.41;4953719;28;20046;-61
2022/09/25 08:43:57;;;;;;;6.50;2.25;;;;;;;10.25;81.19;98021.69;4970015;28;20051;-59
2022/09/25 08:49:32;;;;;;;3.97;1.90;;;;;;;10.32;80.95;98041.16;4957178;28;20054;-60
2022/09/25 08:52:01;;;;;;;3.58;2.00;;;;;;;10.32;81.32;98039.38;4976603;28;20050;-54
2022/09/25 08:54:30;;;;;;;6.60;1.93;;;;;;;10.30;81.37;98051.66;4938256;28;20093;-62
2022/09/25 08:57:03;;;;;;;5.60;1.90;;;;;;;10.30;81.58;98058.59;4970123;28;20039;-59
2022/09/25 08:59:37;;;;;;;2.45;1.52;;;;;;;10.31;81.31;98057.69;4953684;28;20729;-55
2022/09/25 09:02:10;;;;;;;3.42;2.00;;;;;;;10.31;80.92;98060.28;4971167;28;20042;-54
2022/09/25 09:04:50;;;;;;;5.45;1.77;;;;;;;10.29;81.26;98062.13;4970429;28;20046;-53
2022/09/25 09:07:27;;;;;;;4.75;2.20;;;;;;;10.31;81.73;98068.88;4968435;28;20035;-50
2022/09/25 09:10:27;;;;;;;8.48;4.07;;;;;;;10.31;82.01;98076.69;4969685;28;20047;-49
2022/09/25 09:12:57;;;;;;;4.50;1.90;;;;;;;10.29;81.71;98072.50;4959508;28;20051;-56
2022/09/25 09:15:36;;;;;;;1.83;1.42;;;;;;;10.35;81.04;98072.16;4969535;28;20042;-59
2022/09/25 09:18:32;;;;;;;2.75;1.83;;;;;;;10.43;80.72;98078.56;4956186;28;20038;-61
2022/09/25 09:21:12;;;;;;;2.70;1.65;;;;;;;10.51;80.57;98073.75;4951384;28;20057;-60
2022/09/25 09:24:07;;;;;;;2.78;2.03;;;;;;;10.67;80.28;98078.88;4970492;28;20510;-61
2022/09/25 09:26:42;;;;;;;4.68;1.90;;;;;;;10.72;79.56;98083.78;4969450;28;20077;-62
2022/09/25 09:29:23;;;;;;;5.05;1.73;;;;;;;10.70;79.54;98080.44;4952524;28;20047;-61
2022/09/25 09:32:10;;;;;;;4.90;1.83;;;;;;;10.70;79.89;98081.28;4970117;28;20043;-61
2022/09/25 09:34:56;;;;;;;3.00;1.85;;;;;;;10.77;80.06;98090.38;4970576;28;20041;-61
2022/09/25 09:37:48;;;;;;;39.60;20.42;;;;;;;10.79;80.06;98090.25;4970890;28;20070;-61
2022/09/25 09:40:52;;;;;;;4.55;2.17;;;;;;;10.84;80.38;98094.25;4931550;28;20519;-59
2022/09/25 09:43:28;;;;;;;4.25;1.55;;;;;;;10.79;79.69;98096.31;4970755;28;20042;-62
2022/09/25 09:46:28;;;;;;;4.65;1.35;;;;;;;10.70;79.58;98093.44;4970715;28;20435;-60
2022/09/25 09:49:10;;;;;;;3.15;1.30;;;;;;;10.28;79.79;98048.31;4953521;28;20573;-61
2022/09/25 09:51:42;;;;;;;2.42;1.52;;;;;;;10.22;79.44;98058.22;4970972;28;20081;-61
2022/09/25 09:54:28;;;;;;;2.58;1.60;;;;;;;10.43;79.59;98114.09;4970593;28;20457;-59
2022/09/25 09:56:55;;;;;;;2.63;1.92;;;;;;;10.35;80.94;98105.94;4952980;28;20054;-59
2022/09/25 09:59:30;;;;;;;4.25;2.00;;;;;;;10.26;81.06;98104.69;4954380;28;20055;-60
2022/09/25 10:02:11;;;;;;;3.67;1.77;;;;;;;10.27;81.37;98111.56;4969506;28;20062;-59
2022/09/25 10:04:38;;;;;;;4.22;1.90;;;;;;;10.17;80.87;98113.84;4964068;28;20046;-59
2022/09/25 10:07:08;;;;;;;2.47;1.55;;;;;;;10.23;80.89;98110.06;4969421;28;20134;-61
2022/09/25 10:09:36;;;;;;;3.38;1.70;;;;;;;10.31;80.42;98113.03;4970472;28;20074;-60
2022/09/25 10:12:06;;;;;;;2.47;1.80;;;;;;;10.32;80.14;98100.91;4970650;28;20089;-62
2022/09/25 10:14:45;;;;;;;3.15;1.80;;;;;;;10.35;80.28;98087.75;4958860;28;20086;-61
2022/09/25 10:17:12;;;;;;;4.57;1.80;;;;;;;10.60;80.16;98117.38;4969327;28;20034;-62
2022/09/25 10:19:56;;;;;;;2.80;1.52;;;;;;;10.62;79.48;98118.09;4954711;28;20563;-60
2022/09/25 10:22:36;;;;;;;2.10;1.55;;;;;;;10.44;78.96;98103.63;4969407;28;20043;-62
2022/09/25 10:25:04;;;;;;;2.65;1.70;;;;;;;10.53;78.88;98128.22;4939200;28;20042;-60
2022/09/25 10:27:35;;;;;;;3.28;1.88;;;;;;;10.52;78.50;98131.75;4970473;28;20063;-61
2022/09/25 10:30:07;;;;;;;1.90;1.60;;;;;;;10.55;78.62;98135.00;4970036;28;20051;-61
2022/09/25 10:32:46;;;;;;;4.55;1.98;;;;;;;10.69;78.00;98133.34;4970181;28;20462;-61
2022/09/25 10:35:18;;;;;;;5.23;2.80;;;;;;;10.78;77.12;98136.22;4970187;28;20200;-64
2022/09/25 10:37:53;;;;;;;2.03;1.52;;;;;;;10.53;76.82;98110.03;4953219;28;20149;-61
2022/09/25 10:40:30;;;;;;;2.40;1.55;;;;;;;10.66;77.41;98138.72;4970001;28;20137;-59
2022/09/25 10:43:23;;;;;;;2.40;1.90;;;;;;;10.58;77.56;98149.56;4970322;28;20062;-60
2022/09/25 10:45:53;;;;;;;3.10;1.70;;;;;;;10.53;78.39;98142.03;4935996;28;20054;-63
2022/09/25 10:51:20;;;;;;;4.85;1.73;;;;;;;10.47;77.98;98147.59;4953660;28;20059;-61
2022/09/25 10:54:09;;;;;;;3.47;1.80;;;;;;;10.49;77.98;98150.94;4966898;28;20586;-63
2022/09/25 10:56:37;;;;;;;4.72;1.60;;;;;;;10.44;78.19;98146.94;4949874;28;20541;-64
2022/09/25 10:59:13;;;;;;;3.47;1.90;;;;;;;10.39;77.70;98154.16;4968595;28;20507;-50
2022/09/25 11:01:41;;;;;;;2.55;1.55;;;;;;;10.14;77.48;98121.81;4951277;28;20293;-64
2022/09/25 11:04:24;;;;;;;5.80;1.65;;;;;;;10.30;77.85;98157.31;4967165;28;20058;-53
2022/09/25 11:06:52;;;;;;;3.70;2.00;;;;;;;10.26;77.71;98154.03;4958552;28;20046;-61
2022/09/25 11:09:21;;;;;;;3.42;1.90;;;;;;;10.27;78.09;98162.66;4958330;28;20070;-61
2022/09/25 11:11:48;;;;;;;2.13;1.65;;;;;;;10.26;78.57;98172.22;4955673;28;20535;-61
2022/09/25 11:14:34;;;;;;;7.93;2.05;;;;;;;10.04;78.95;98138.00;4954102;28;20050;-61
2022/09/25 11:17:04;;;;;;;4.70;2.10;;;;;;;9.89;79.40;98120.69;4947756;29;20042;-61
2022/09/25 11:19:35;;;;;;;5.13;3.15;;;;;;;10.14;79.61;98165.94;4961359;28;20043;-61
2022/09/25 11:22:24;;;;;;;3.13;1.92;;;;;;;10.17;79.77;98170.13;4971863;28;20058;-61
2022/09/25 11:25:13;;;;;;;5.30;2.30;;;;;;;10.18;80.60;98179.63;4966632;28;20085;-62
2022/09/25 11:27:44;;;;;;;3.70;2.22;;;;;;;10.18;80.84;98175.25;4970967;28;20046;-64
2022/09/25 11:30:16;;;;;;;3.72;2.05;;;;;;;10.18;80.56;98182.22;4955812;28;20050;-62
2022/09/25 11:33:01;;;;;;;3.33;2.40;;;;;;;10.09;81.16;98193.94;4962681;28;20129;-62
2022/09/25 11:35:29;;;;;;;5.13;2.22;;;;;;;9.87;80.60;98195.19;4972496;28;20049;-57
2022/09/25 11:38:13;;;;;;;3.35;2.20;;;;;;;9.87;80.98;98193.44;4972299;28;20049;-49
2022/09/25 11:41:13;;;;;;;4.50;2.17;;;;;;;9.74;81.18;98195.03;4972864;28;20518;-46
2022/09/25 11:44:15;;;;;;;3.05;2.22;;;;;;;9.71;81.74;98190.00;4954560;28;20039;-50
2022/09/25 11:47:05;;;;;;;9.07;2.45;;;;;;;9.64;82.09;98175.69;4971702;28;20590;-46
2022/09/25 11:49:35;;;;;;;5.75;2.63;;;;;;;9.45;82.77;98142.16;4955693;28;20105;-48
2022/09/25 11:52:39;;;;;;;4.97;2.22;;;;;;;9.82;82.75;98208.44;4971592;28;20518;-49
2022/09/25 11:55:26;;;;;;;3.63;2.60;;;;;;;9.80;83.28;98207.66;4971213;28;20058;-44
2022/09/25 11:58:13;;;;;;;4.53;2.70;;;;;;;9.76;83.54;98199.22;4970872;28;20042;-46
2022/09/25 12:00:43;;;;;;;4.90;2.55;;;;;;;9.78;83.38;98206.94;4955390;28;20046;-48
2022/09/25 12:03:47;;;;;;;4.72;3.38;;;;;;;9.79;84.00;98211.19;4972183;28;20062;-53
2022/09/25 12:06:40;;;;;;;4.78;2.95;;;;;;;9.73;84.15;98209.75;4961833;28;20035;-50
2022/09/25 12:09:36;;;;;;;7.88;4.80;;;;;;;9.72;84.21;98215.88;4968479;28;20054;-47
2022/09/25 12:12:21;;;;;;;14.82;8.23;;;;;;;9.76;84.42;98219.16;4967571;28;20458;-49